Rochester Hills, Michigan
Current Conditions -  °F | °C
As of 10:35 AM on Saturday 25 Oct 2014 (Local Time) from KVLL Reporting Station
Broken Clouds Broken Clouds  
Wind Chill: 15°   Ceiling: 1400
Heat Index: 15°   Visibility: 7mi
Dew Point: 11°   Wind: 17mph
Humidity: 75%   Direction: 270°W
Pressure: 29.82"   Gusts: 22mph
Location:  42.66°N, 83.16°W
Report Text: KVLL 251435Z AUTO 27015G19KT 7SM BKN014 15/11 A2982 RMK AO2 T01500106
Loading
Personal Weather Stations






























Interactive Weather Map
Tropical Storm Tracking
New forecast layout! Learn more

10-Day Weather Forecast

Advertisements
Track Severe Weather on mobile